Time;durP1;ratioP1;P1;durP2;ratioP2;P2;SDS_P1;SDS_P2;PMS_P1;PMS_P2;Temp;Humidity;BMP_temperature;BMP_pressure;BME280_temperature;BME280_humidity;BME280_pressure;Samples;Min_cycle;Max_cycle;Signal;HPM_P1;HPM_P2
2022/10/22 00:00:52;;;;;;;;;;;20.20;73.50;;;;;;4494626;31;19966;-71
2022/10/22 00:03:19;;;;;;;;;;;20.20;73.40;;;;;;4494357;31;20098;-71
2022/10/22 00:05:46;;;;;;;;;;;20.20;73.40;;;;;;4494615;31;19988;-71
2022/10/22 00:08:13;;;;;;;;;;;20.20;73.50;;;;;;4494589;31;19985;-71
2022/10/22 00:10:39;;;;;;;;;;;20.20;73.40;;;;;;4494111;31;20137;-71
2022/10/22 00:13:05;;;;;;;;;;;20.20;73.50;;;;;;4494198;31;19990;-71
2022/10/22 00:15:30;;;;;;;;;;;20.20;73.50;;;;;;4479465;31;20047;-75
2022/10/22 00:17:56;;;;;;;;;;;20.10;73.40;;;;;;4494129;31;20016;-71
2022/10/22 00:20:22;;;;;;;;;;;20.10;73.50;;;;;;4494388;31;19980;-71
2022/10/22 00:22:47;;;;;;;;;;;20.10;73.50;;;;;;4494358;31;19973;-71
2022/10/22 00:25:13;;;;;;;;;;;20.10;73.50;;;;;;4494659;31;19981;-71
2022/10/22 00:27:39;;;;;;;;;;;20.10;73.50;;;;;;4494093;31;19984;-71
2022/10/22 00:30:05;;;;;;;;;;;20.10;73.50;;;;;;4479800;31;19981;-71
2022/10/22 00:32:31;;;;;;;;;;;20.10;73.50;;;;;;4494182;31;19969;-71
2022/10/22 00:34:56;;;;;;;;;;;20.10;73.50;;;;;;4494183;31;20455;-71
2022/10/22 00:37:22;;;;;;;;;;;20.10;74.40;;;;;;4494566;31;19970;-78
2022/10/22 00:39:48;;;;;;;;;;;20.10;73.50;;;;;;4494068;31;19969;-71
2022/10/22 00:42:21;;;;;;;;;;;20.10;73.40;;;;;;4494067;31;19961;-71
2022/10/22 00:45:06;;;;;;;;;;;20.10;73.50;;;;;;4494260;31;20021;-71
2022/10/22 00:47:36;;;;;;;;;;;20.10;73.50;;;;;;4494161;31;19985;-72
2022/10/22 00:50:04;;;;;;;;;;;20.10;73.50;;;;;;4494183;31;19985;-71
2022/10/22 00:52:30;;;;;;;;;;;20.10;73.50;;;;;;4493887;31;19984;-71
2022/10/22 00:54:56;;;;;;;;;;;20.10;73.50;;;;;;4493583;31;19973;-71
2022/10/22 00:57:22;;;;;;;;;;;20.10;73.50;;;;;;4493783;31;20051;-71
2022/10/22 00:59:48;;;;;;;;;;;20.10;73.50;;;;;;4493912;31;19969;-72
2022/10/22 01:02:14;;;;;;;;;;;20.00;73.40;;;;;;4493973;31;19969;-71
2022/10/22 01:04:40;;;;;;;;;;;20.00;73.40;;;;;;4493426;31;19989;-68
2022/10/22 01:07:13;;;;;;;;;;;20.00;73.40;;;;;;4493622;31;20014;-67
2022/10/22 01:09:41;;;;;;;;;;;20.00;73.40;;;;;;4493603;31;19985;-68
2022/10/22 01:12:13;;;;;;;;;;;20.00;73.40;;;;;;4493358;31;20029;-68
2022/10/22 01:14:38;;;;;;;;;;;20.00;73.40;;;;;;4493610;31;20111;-68
2022/10/22 01:17:07;;;;;;;;;;;20.00;73.40;;;;;;4493529;31;19962;-67
2022/10/22 01:19:32;;;;;;;;;;;20.00;73.40;;;;;;4493584;31;19977;-68
2022/10/22 01:22:01;;;;;;;;;;;20.00;73.40;;;;;;4493390;31;20036;-68
2022/10/22 01:24:26;;;;;;;;;;;20.00;73.40;;;;;;4493177;31;19970;-68
2022/10/22 01:26:52;;;;;;;;;;;20.00;73.40;;;;;;4493233;31;20050;-68
2022/10/22 01:29:21;;;;;;;;;;;20.00;73.40;;;;;;4493269;31;20070;-68
2022/10/22 01:31:50;;;;;;;;;;;20.00;73.40;;;;;;4493227;31;20472;-68
2022/10/22 01:34:17;;;;;;;;;;;19.90;73.30;;;;;;4493462;31;19965;-68
2022/10/22 01:36:44;;;;;;;;;;;20.00;73.40;;;;;;4492921;31;19973;-68
2022/10/22 01:39:11;;;;;;;;;;;20.00;73.40;;;;;;4492988;31;20024;-68
2022/10/22 01:41:37;;;;;;;;;;;19.90;73.30;;;;;;4493299;31;20025;-68
2022/10/22 01:44:03;;;;;;;;;;;19.90;73.40;;;;;;4492810;31;19978;-68
2022/10/22 01:46:29;;;;;;;;;;;19.90;73.30;;;;;;4493051;31;19984;-68
2022/10/22 01:49:03;;;;;;;;;;;19.90;73.30;;;;;;4492960;31;20045;-67
2022/10/22 01:51:32;;;;;;;;;;;19.90;73.30;;;;;;4492986;31;20406;-68
2022/10/22 01:54:07;;;;;;;;;;;19.90;73.30;;;;;;4492693;31;20027;-68
2022/10/22 01:56:35;;;;;;;;;;;19.90;73.30;;;;;;4492645;31;19988;-68
2022/10/22 01:59:05;;;;;;;;;;;19.90;74.10;;;;;;4492578;31;20021;-68
2022/10/22 02:01:50;;;;;;;;;;;19.90;73.30;;;;;;4493097;31;20050;-67
2022/10/22 02:04:25;;;;;;;;;;;19.90;73.20;;;;;;4492624;31;19982;-68
2022/10/22 02:06:53;;;;;;;;;;;19.90;73.30;;;;;;4492555;31;19973;-67
2022/10/22 02:09:21;;;;;;;;;;;19.90;73.30;;;;;;4492721;31;19992;-68
2022/10/22 02:11:48;;;;;;;;;;;19.90;73.20;;;;;;4492762;31;20025;-68
2022/10/22 02:14:14;;;;;;;;;;;19.90;73.30;;;;;;4492972;31;20406;-68
2022/10/22 02:16:41;;;;;;;;;;;19.90;73.30;;;;;;4492405;31;19984;-68
2022/10/22 02:19:14;;;;;;;;;;;19.90;73.20;;;;;;4492441;31;20024;-68
2022/10/22 02:21:40;;;;;;;;;;;19.90;73.20;;;;;;4492642;31;19995;-67
2022/10/22 02:24:06;;;;;;;;;;;19.80;73.30;;;;;;4492415;31;20476;-66
2022/10/22 02:26:38;;;;;;;;;;;19.80;73.20;;;;;;4492672;31;19970;-68
2022/10/22 02:29:07;;;;;;;;;;;19.80;73.20;;;;;;4492670;31;20024;-67
2022/10/22 02:31:35;;;;;;;;;;;19.80;73.30;;;;;;4492544;31;19966;-68
2022/10/22 02:34:03;;;;;;;;;;;19.80;73.20;;;;;;4492521;32;20128;-68
2022/10/22 02:36:29;;;;;;;;;;;19.80;73.20;;;;;;4492515;31;20108;-68
2022/10/22 02:38:55;;;;;;;;;;;19.80;73.20;;;;;;4481011;31;19966;-66
2022/10/22 02:41:21;;;;;;;;;;;19.80;73.20;;;;;;4495517;31;20091;-68
2022/10/22 02:43:52;;;;;;;;;;;19.80;73.20;;;;;;4495899;31;20210;-68
2022/10/22 02:46:18;;;;;;;;;;;19.80;73.20;;;;;;4495640;31;19988;-68
2022/10/22 02:48:43;;;;;;;;;;;19.80;73.20;;;;;;4495570;31;19969;-70
2022/10/22 02:51:09;;;;;;;;;;;19.80;73.20;;;;;;4495398;31;20395;-68
2022/10/22 02:53:35;;;;;;;;;;;19.80;73.20;;;;;;4481242;31;19980;-67
2022/10/22 02:56:01;;;;;;;;;;;19.80;73.10;;;;;;4495377;31;19978;-68
2022/10/22 02:58:26;;;;;;;;;;;19.80;73.10;;;;;;4495394;31;20016;-67
2022/10/22 03:00:52;;;;;;;;;;;19.80;73.10;;;;;;4495059;31;19966;-68
2022/10/22 03:03:18;;;;;;;;;;;19.70;73.10;;;;;;4495344;31;20367;-67
2022/10/22 03:05:43;;;;;;;;;;;19.80;73.10;;;;;;4495235;31;19982;-67
2022/10/22 03:08:09;;;;;;;;;;;19.70;73.10;;;;;;4495087;31;19969;-67
2022/10/22 03:10:36;;;;;;;;;;;19.70;73.10;;;;;;4495158;31;19988;-67
2022/10/22 03:13:02;;;;;;;;;;;19.70;73.10;;;;;;4495175;31;19970;-67
2022/10/22 03:15:27;;;;;;;;;;;19.80;73.20;;;;;;4480897;31;20021;-67
2022/10/22 03:17:53;;;;;;;;;;;19.70;73.10;;;;;;4495032;31;19961;-68
2022/10/22 03:20:18;;;;;;;;;;;19.70;73.10;;;;;;4495201;31;19958;-67
2022/10/22 03:22:45;;;;;;;;;;;19.70;73.10;;;;;;4495211;31;20031;-67
2022/10/22 03:25:12;;;;;;;;;;;19.70;73.10;;;;;;4495381;31;20424;-67
2022/10/22 03:27:38;;;;;;;;;;;19.70;73.10;;;;;;4495119;31;20103;-67
2022/10/22 03:30:04;;;;;;;;;;;19.70;73.10;;;;;;4495093;31;19977;-67
2022/10/22 03:32:31;;;;;;;;;;;19.70;73.20;;;;;;4495105;31;19970;-67
2022/10/22 03:34:56;;;;;;;;;;;19.70;73.10;;;;;;4495390;31;19996;-67
2022/10/22 03:37:23;;;;;;;;;;;19.70;73.10;;;;;;4480625;31;19973;-67
2022/10/22 03:39:48;;;;;;;;;;;19.70;73.10;;;;;;4494896;31;20052;-67
2022/10/22 03:42:15;;;;;;;;;;;19.70;73.10;;;;;;4494949;31;20088;-67
2022/10/22 03:44:40;;;;;;;;;;;19.70;73.10;;;;;;4494610;31;20091;-67
2022/10/22 03:47:06;;;;;;;;;;;19.70;73.10;;;;;;4495159;31;20337;-67
2022/10/22 03:49:32;;;;;;;;;;;19.70;73.10;;;;;;4494370;31;19970;-67
2022/10/22 03:52:03;;;;;;;;;;;19.70;73.10;;;;;;4494793;31;20175;-67
2022/10/22 03:54:29;;;;;;;;;;;19.60;73.00;;;;;;4494850;31;20013;-67
2022/10/22 03:56:55;;;;;;;;;;;19.70;73.10;;;;;;4494953;31;20410;-67
2022/10/22 03:59:20;;;;;;;;;;;19.60;73.10;;;;;;4494603;31;20096;-67
2022/10/22 04:01:46;;;;;;;;;;;19.60;73.00;;;;;;4494840;31;19977;-67
2022/10/22 04:04:12;;;;;;;;;;;19.60;73.00;;;;;;4494626;31;19982;-67
2022/10/22 04:06:37;;;;;;;;;;;19.60;73.10;;;;;;4494511;31;20005;-68
2022/10/22 04:09:03;;;;;;;;;;;19.60;73.10;;;;;;4494436;31;20367;-68
2022/10/22 04:11:29;;;;;;;;;;;19.60;73.10;;;;;;4494202;31;19973;-67
2022/10/22 04:13:55;;;;;;;;;;;19.60;73.00;;;;;;4494233;31;19962;-67
2022/10/22 04:16:21;;;;;;;;;;;19.60;73.10;;;;;;4494442;31;19977;-68
2022/10/22 04:18:48;;;;;;;;;;;19.60;73.10;;;;;;4494398;31;20462;-67
2022/10/22 04:21:15;;;;;;;;;;;19.60;73.10;;;;;;4494100;31;19969;-67
2022/10/22 04:23:44;;;;;;;;;;;19.60;73.00;;;;;;4494065;31;19981;-67
2022/10/22 04:26:10;;;;;;;;;;;19.60;73.00;;;;;;4494628;31;19969;-67
2022/10/22 04:28:36;;;;;;;;;;;19.60;73.10;;;;;;4494558;31;19984;-67
2022/10/22 04:31:08;;;;;;;;;;;19.60;73.00;;;;;;4480050;31;20319;-67
2022/10/22 04:33:34;;;;;;;;;;;19.60;73.00;;;;;;4493886;31;19992;-67
2022/10/22 04:36:04;;;;;;;;;;;19.60;73.00;;;;;;4479660;31;20311;-68
2022/10/22 04:38:30;;;;;;;;;;;19.60;73.10;;;;;;4494001;31;19988;-67
2022/10/22 04:40:55;;;;;;;;;;;19.60;73.10;;;;;;4494008;31;19965;-67
2022/10/22 04:43:21;;;;;;;;;;;19.60;73.00;;;;;;4494029;31;20051;-67
2022/10/22 04:45:47;;;;;;;;;;;19.60;73.00;;;;;;4494068;31;19994;-67
2022/10/22 04:48:13;;;;;;;;;;;19.60;73.00;;;;;;4494180;31;19977;-67
2022/10/22 04:50:39;;;;;;;;;;;19.60;73.00;;;;;;4493924;31;19976;-67
2022/10/22 04:53:04;;;;;;;;;;;19.60;73.00;;;;;;4493626;31;19961;-67
2022/10/22 04:55:30;;;;;;;;;;;19.50;73.00;;;;;;4493888;31;19961;-70
2022/10/22 04:57:56;;;;;;;;;;;19.50;73.00;;;;;;4493842;31;19980;-69
2022/10/22 05:00:21;;;;;;;;;;;19.50;73.00;;;;;;4493163;31;20051;-70
2022/10/22 05:02:48;;;;;;;;;;;19.50;73.00;;;;;;4494046;31;20001;-69
2022/10/22 05:05:13;;;;;;;;;;;19.50;73.00;;;;;;4493753;31;20000;-67
2022/10/22 05:07:40;;;;;;;;;;;19.50;73.00;;;;;;4493677;31;19988;-67
2022/10/22 05:10:06;;;;;;;;;;;19.50;72.90;;;;;;4493295;31;19969;-67
2022/10/22 05:12:33;;;;;;;;;;;19.50;73.00;;;;;;4493465;31;20383;-67
2022/10/22 05:14:59;;;;;;;;;;;19.50;72.90;;;;;;4493925;31;20147;-67
2022/10/22 05:17:25;;;;;;;;;;;19.50;72.90;;;;;;4493510;31;19982;-67
2022/10/22 05:19:50;;;;;;;;;;;19.50;72.90;;;;;;4493649;31;20046;-67
2022/10/22 05:22:16;;;;;;;;;;;19.50;73.00;;;;;;4493404;31;20004;-67
2022/10/22 05:24:42;;;;;;;;;;;19.50;73.00;;;;;;4493347;31;20109;-67
2022/10/22 05:27:07;;;;;;;;;;;19.50;73.00;;;;;;4493451;31;20009;-67
2022/10/22 05:29:33;;;;;;;;;;;19.50;72.90;;;;;;4493329;31;19981;-67
2022/10/22 05:31:59;;;;;;;;;;;19.50;72.90;;;;;;4493291;31;19984;-66
2022/10/22 05:34:25;;;;;;;;;;;19.50;72.90;;;;;;4493261;31;20109;-67
2022/10/22 05:36:50;;;;;;;;;;;19.50;72.90;;;;;;4493221;31;20280;-67
2022/10/22 05:39:16;;;;;;;;;;;19.40;72.80;;;;;;4493108;31;19977;-67
2022/10/22 05:41:42;;;;;;;;;;;19.50;72.90;;;;;;4493166;31;19962;-67
2022/10/22 05:44:10;;;;;;;;;;;19.50;72.90;;;;;;4492887;31;20016;-67
2022/10/22 05:46:35;;;;;;;;;;;19.50;72.90;;;;;;4493083;31;19992;-67
2022/10/22 05:49:02;;;;;;;;;;;19.50;72.90;;;;;;4493056;31;19973;-67
2022/10/22 05:51:29;;;;;;;;;;;19.40;72.80;;;;;;4493004;31;20575;-67
2022/10/22 05:54:00;;;;;;;;;;;19.40;72.90;;;;;;4493167;31;19984;-67
2022/10/22 05:56:27;;;;;;;;;;;19.40;72.90;;;;;;4493306;31;19978;-67
2022/10/22 05:58:53;;;;;;;;;;;19.40;72.90;;;;;;4492893;31;20096;-67
2022/10/22 06:01:19;;;;;;;;;;;19.40;72.80;;;;;;4493121;31;19966;-67
2022/10/22 06:03:45;;;;;;;;;;;19.40;72.80;;;;;;4492875;31;19969;-67
2022/10/22 06:06:31;;;;;;;;;;;19.40;72.80;;;;;;4492567;31;19985;-67
2022/10/22 06:08:59;;;;;;;;;;;19.40;72.90;;;;;;4484643;31;20035;-67
2022/10/22 06:11:25;;;;;;;;;;;19.40;72.90;;;;;;4492635;31;19987;-67
2022/10/22 06:13:52;;;;;;;;;;;19.40;72.90;;;;;;4492899;31;19981;-67
2022/10/22 06:16:17;;;;;;;;;;;19.40;72.90;;;;;;4492582;31;20025;-68
2022/10/22 06:18:43;;;;;;;;;;;19.40;72.90;;;;;;4492720;31;19996;-67
2022/10/22 06:21:10;;;;;;;;;;;19.30;72.80;;;;;;4492390;31;19997;-68
2022/10/22 06:23:36;;;;;;;;;;;19.40;72.90;;;;;;4478508;31;19974;-67
2022/10/22 06:26:03;;;;;;;;;;;19.40;72.90;;;;;;4492679;31;19988;-67
2022/10/22 06:28:28;;;;;;;;;;;19.30;72.80;;;;;;4492368;31;19991;-67
2022/10/22 06:30:56;;;;;;;;;;;19.40;72.80;;;;;;4492659;31;19973;-67
2022/10/22 06:33:21;;;;;;;;;;;19.30;72.80;;;;;;4478165;32;20111;-67
2022/10/22 06:35:47;;;;;;;;;;;19.30;72.90;;;;;;4492544;32;19969;-68
2022/10/22 06:38:13;;;;;;;;;;;19.30;72.50;;;;;;4492198;32;20075;-67
2022/10/22 06:40:42;;;;;;;;;;;19.30;72.10;;;;;;4492449;32;19977;-67
2022/10/22 06:43:08;;;;;;;;;;;19.30;71.60;;;;;;4492252;32;20001;-68
2022/10/22 06:45:34;;;;;;;;;;;19.30;71.90;;;;;;4492523;32;20051;-67
2022/10/22 06:47:59;;;;;;;;;;;19.30;72.30;;;;;;4492222;32;19970;-67
2022/10/22 06:50:25;;;;;;;;;;;19.30;72.50;;;;;;4492778;32;20374;-67
2022/10/22 06:52:51;;;;;;;;;;;19.30;73.20;;;;;;4492480;32;19977;-67
2022/10/22 06:55:16;;;;;;;;;;;19.30;72.90;;;;;;4492683;32;19980;-67
2022/10/22 06:57:42;;;;;;;;;;;19.30;73.00;;;;;;4492207;32;20112;-67
2022/10/22 07:00:08;;;;;;;;;;;19.30;72.90;;;;;;4492593;32;20303;-67
2022/10/22 07:02:34;;;;;;;;;;;19.30;73.00;;;;;;4492359;32;19962;-66
2022/10/22 07:04:59;;;;;;;;;;;19.30;73.20;;;;;;4492306;32;20000;-67
2022/10/22 07:07:25;;;;;;;;;;;19.30;73.50;;;;;;4492171;32;20119;-67
2022/10/22 07:09:51;;;;;;;;;;;19.30;73.50;;;;;;4491973;32;20046;-66
2022/10/22 07:12:16;;;;;;;;;;;19.30;73.50;;;;;;4492147;32;20051;-67
2022/10/22 07:14:43;;;;;;;;;;;19.30;73.50;;;;;;4492302;32;19988;-67
2022/10/22 07:17:08;;;;;;;;;;;19.40;74.50;;;;;;4492214;32;19973;-68
2022/10/22 07:19:35;;;;;;;;;;;19.30;73.70;;;;;;4492168;32;19981;-68
2022/10/22 07:22:00;;;;;;;;;;;19.30;73.80;;;;;;4492232;32;19978;-68
2022/10/22 07:24:26;;;;;;;;;;;19.30;73.80;;;;;;4494402;31;19981;-67
2022/10/22 07:26:52;;;;;;;;;;;19.30;73.90;;;;;;4495143;31;19980;-70
2022/10/22 07:29:17;;;;;;;;;;;19.30;73.90;;;;;;4495336;31;20386;-68
2022/10/22 07:31:43;;;;;;;;;;;19.30;74.10;;;;;;4480749;31;19984;-68
2022/10/22 07:34:09;;;;;;;;;;;19.30;74.10;;;;;;4495072;31;19981;-68
2022/10/22 07:36:34;;;;;;;;;;;19.30;74.10;;;;;;4494776;31;19977;-68
2022/10/22 07:39:00;;;;;;;;;;;19.30;74.30;;;;;;4495172;31;19973;-68
2022/10/22 07:41:27;;;;;;;;;;;19.30;74.30;;;;;;4494783;31;19969;-68
2022/10/22 07:43:53;;;;;;;;;;;19.30;74.50;;;;;;4494913;31;20406;-68
2022/10/22 07:46:19;;;;;;;;;;;19.30;74.50;;;;;;4494936;31;20061;-69
2022/10/22 07:48:44;;;;;;;;;;;19.30;74.70;;;;;;4494881;31;19973;-69
2022/10/22 07:51:10;;;;;;;;;;;19.30;74.70;;;;;;4494860;31;20031;-68
2022/10/22 07:53:36;;;;;;;;;;;19.30;74.80;;;;;;4494815;31;20103;-67
2022/10/22 07:56:02;;;;;;;;;;;19.30;74.90;;;;;;4494791;31;19987;-68
2022/10/22 07:58:28;;;;;;;;;;;19.30;75.20;;;;;;4494729;31;20009;-69
2022/10/22 08:00:54;;;;;;;;;;;19.30;75.30;;;;;;4494466;31;19965;-69
2022/10/22 08:03:20;;;;;;;;;;;19.30;75.40;;;;;;4494643;31;20414;-72
2022/10/22 08:05:46;;;;;;;;;;;19.40;75.50;;;;;;4494542;31;19970;-69
2022/10/22 08:08:13;;;;;;;;;;;19.30;75.70;;;;;;4494413;31;19961;-69
2022/10/22 08:10:38;;;;;;;;;;;19.40;75.90;;;;;;4494409;31;20132;-69
2022/10/22 08:13:04;;;;;;;;;;;19.40;75.40;;;;;;4494581;31;19962;-68
2022/10/22 08:15:31;;;;;;;;;;;19.40;75.40;;;;;;4494721;31;19996;-68
2022/10/22 08:17:56;;;;;;;;;;;19.40;75.40;;;;;;4494687;31;19970;-67
2022/10/22 08:20:22;;;;;;;;;;;19.40;75.50;;;;;;4494666;31;19962;-67
2022/10/22 08:22:48;;;;;;;;;;;19.30;75.00;;;;;;4494419;31;20035;-67
2022/10/22 08:25:14;;;;;;;;;;;19.30;74.60;;;;;;4494352;31;19965;-67
2022/10/22 08:27:40;;;;;;;;;;;19.30;74.50;;;;;;4494396;31;20096;-68
2022/10/22 08:30:06;;;;;;;;;;;19.40;74.50;;;;;;4494036;31;19984;-68
2022/10/22 08:32:32;;;;;;;;;;;19.30;74.50;;;;;;4494060;31;19981;-67
2022/10/22 08:34:57;;;;;;;;;;;19.30;74.40;;;;;;4493401;31;19984;-67
2022/10/22 08:37:24;;;;;;;;;;;19.40;74.60;;;;;;4494202;31;20017;-68
2022/10/22 08:39:50;;;;;;;;;;;19.40;74.80;;;;;;4494232;31;20055;-68
2022/10/22 08:42:34;;;;;;;;;;;19.30;74.80;;;;;;4494105;31;20108;-68
2022/10/22 08:45:09;;;;;;;;;;;19.40;74.70;;;;;;4494036;31;19966;-68
2022/10/22 08:47:53;;;;;;;;;;;19.30;75.00;;;;;;4494234;31;19986;-68
2022/10/22 08:50:25;;;;;;;;;;;19.30;74.90;;;;;;4494169;31;19996;-69
2022/10/22 08:52:55;;;;;;;;;;;19.30;74.80;;;;;;4494705;31;20017;-68
2022/10/22 08:55:22;;;;;;;;;;;19.30;74.90;;;;;;4494113;31;20303;-71
2022/10/22 08:57:58;;;;;;;;;;;19.40;75.10;;;;;;4493789;31;20375;-67
2022/10/22 09:00:41;;;;;;;;;;;19.30;74.90;;;;;;4493722;31;20000;-67
2022/10/22 09:03:26;;;;;;;;;;;19.30;74.90;;;;;;4493890;31;20058;-67
2022/10/22 09:05:54;;;;;;;;;;;19.30;74.70;;;;;;4479722;31;20370;-67
2022/10/22 09:08:21;;;;;;;;;;;19.40;74.80;;;;;;4493357;31;19969;-67
2022/10/22 09:10:49;;;;;;;;;;;19.30;74.80;;;;;;4479490;31;19981;-67
2022/10/22 09:13:17;;;;;;;;;;;19.30;74.70;;;;;;4493498;31;20407;-67
2022/10/22 09:16:09;;;;;;;;;;;19.40;74.60;;;;;;4493906;31;19981;-67
2022/10/22 09:18:40;;;;;;;;;;;19.30;74.60;;;;;;4492752;31;20387;-67
2022/10/22 09:21:20;;;;;;;;;;;19.30;74.60;;;;;;4493441;31;20058;-67
2022/10/22 09:23:59;;;;;;;;;;;19.30;74.60;;;;;;4493566;31;19982;-67
2022/10/22 09:26:25;;;;;;;;;;;19.40;74.60;;;;;;4493194;31;20108;-67
2022/10/22 09:28:52;;;;;;;;;;;19.40;74.50;;;;;;4493123;31;19962;-67
2022/10/22 09:31:17;;;;;;;;;;;19.30;74.50;;;;;;4493339;31;19970;-67
2022/10/22 09:33:44;;;;;;;;;;;19.30;74.50;;;;;;4493070;31;20090;-67
2022/10/22 09:36:17;;;;;;;;;;;19.40;74.60;;;;;;4493303;31;20458;-67
2022/10/22 09:38:48;;;;;;;;;;;19.30;74.50;;;;;;4493184;31;20387;-67
2022/10/22 09:41:14;;;;;;;;;;;19.30;74.40;;;;;;4493493;31;19965;-67
2022/10/22 09:43:39;;;;;;;;;;;19.30;74.40;;;;;;4492921;31;20013;-67
2022/10/22 09:46:06;;;;;;;;;;;19.40;74.50;;;;;;4492964;31;19980;-67
2022/10/22 09:48:33;;;;;;;;;;;19.40;75.30;;;;;;4493076;31;19981;-67
2022/10/22 09:51:04;;;;;;;;;;;19.40;74.40;;;;;;4493117;31;20028;-67
2022/10/22 09:53:40;;;;;;;;;;;19.40;74.40;;;;;;4493014;31;19969;-67
2022/10/22 09:56:07;;;;;;;;;;;19.40;74.50;;;;;;4493426;31;20371;-67
2022/10/22 09:58:43;;;;;;;;;;;19.40;74.50;;;;;;4493003;31;19973;-67
2022/10/22 10:01:14;;;;;;;;;;;19.40;74.40;;;;;;4492903;31;20094;-67
2022/10/22 10:03:40;;;;;;;;;;;19.40;74.40;;;;;;4493054;31;20391;-67
2022/10/22 10:06:06;;;;;;;;;;;19.40;74.60;;;;;;4493004;31;19976;-67
2022/10/22 10:08:31;;;;;;;;;;;19.40;74.70;;;;;;4492841;31;20396;-67
2022/10/22 10:10:59;;;;;;;;;;;19.40;74.50;;;;;;4492650;31;20037;-67
2022/10/22 10:13:40;;;;;;;;;;;19.40;74.50;;;;;;4492824;31;20335;-67
2022/10/22 10:16:22;;;;;;;;;;;19.30;74.40;;;;;;4492534;31;19996;-67
2022/10/22 10:18:54;;;;;;;;;;;19.40;74.60;;;;;;4492735;31;20035;-67
2022/10/22 10:21:43;;;;;;;;;;;19.40;74.60;;;;;;4492798;31;19977;-67
2022/10/22 10:24:19;;;;;;;;;;;19.40;74.50;;;;;;4493106;31;20016;-67
2022/10/22 10:26:46;;;;;;;;;;;19.40;74.50;;;;;;4493052;31;19974;-67
2022/10/22 10:29:17;;;;;;;;;;;19.40;74.50;;;;;;4492899;31;20081;-67
2022/10/22 10:31:58;;;;;;;;;;;19.30;74.50;;;;;;4492657;31;20520;-67
2022/10/22 10:34:36;;;;;;;;;;;19.30;74.40;;;;;;4492629;31;20295;-66
2022/10/22 10:37:08;;;;;;;;;;;19.40;74.60;;;;;;4492761;32;19981;-67
2022/10/22 10:39:34;;;;;;;;;;;19.30;74.80;;;;;;4492184;32;20111;-67
2022/10/22 10:42:05;;;;;;;;;;;19.30;74.50;;;;;;4492603;32;19991;-67
2022/10/22 10:44:47;;;;;;;;;;;19.40;74.90;;;;;;4492570;32;20013;-67
2022/10/22 10:47:29;;;;;;;;;;;19.30;74.70;;;;;;4492624;32;20062;-67
2022/10/22 10:50:01;;;;;;;;;;;19.30;74.60;;;;;;4492677;32;20082;-67
2022/10/22 10:52:26;;;;;;;;;;;19.30;74.80;;;;;;4492590;32;19988;-67
2022/10/22 10:55:01;;;;;;;;;;;19.40;74.90;;;;;;4492447;32;20315;-67
2022/10/22 10:57:42;;;;;;;;;;;19.40;74.80;;;;;;4492505;31;19969;-67
2022/10/22 11:00:16;;;;;;;;;;;19.40;74.80;;;;;;4495313;31;20004;-67
2022/10/22 11:02:53;;;;;;;;;;;19.30;74.70;;;;;;4495310;31;20069;-67
2022/10/22 11:05:38;;;;;;;;;;;19.40;74.70;;;;;;4495542;31;20434;-67
2022/10/22 11:08:09;;;;;;;;;;;19.40;74.80;;;;;;4495259;31;19992;-67
2022/10/22 11:10:35;;;;;;;;;;;19.40;75.70;;;;;;4495087;31;19986;-67
2022/10/22 11:13:04;;;;;;;;;;;19.30;74.80;;;;;;4495551;31;19962;-66
2022/10/22 11:15:31;;;;;;;;;;;19.30;74.90;;;;;;4495489;31;19981;-68
2022/10/22 11:18:06;;;;;;;;;;;19.30;74.90;;;;;;4495179;31;19985;-67
2022/10/22 11:20:31;;;;;;;;;;;19.30;74.90;;;;;;4495617;31;19988;-67
2022/10/22 11:23:03;;;;;;;;;;;19.40;74.90;;;;;;4480849;31;19970;-67
2022/10/22 11:25:33;;;;;;;;;;;19.40;74.90;;;;;;4495261;31;20024;-67
2022/10/22 11:28:02;;;;;;;;;;;19.30;74.90;;;;;;4494997;31;20070;-67
2022/10/22 11:30:30;;;;;;;;;;;19.30;75.10;;;;;;4495185;31;20330;-67
2022/10/22 11:32:59;;;;;;;;;;;19.30;75.00;;;;;;4495448;31;19991;-67
2022/10/22 11:35:27;;;;;;;;;;;19.30;74.90;;;;;;4494924;31;20119;-67
2022/10/22 11:37:54;;;;;;;;;;;19.30;75.10;;;;;;4494813;31;19966;-67
2022/10/22 11:40:20;;;;;;;;;;;19.30;75.20;;;;;;4494916;31;20505;-67
2022/10/22 11:43:02;;;;;;;;;;;19.30;75.10;;;;;;4495340;31;20163;-67
2022/10/22 11:45:29;;;;;;;;;;;19.30;75.00;;;;;;4494715;31;19966;-67
2022/10/22 11:48:10;;;;;;;;;;;19.30;75.10;;;;;;4495286;31;20059;-67
2022/10/22 11:50:45;;;;;;;;;;;19.30;75.00;;;;;;4494853;31;20115;-67
2022/10/22 11:53:11;;;;;;;;;;;19.30;75.00;;;;;;4494845;31;19977;-67
2022/10/22 11:55:37;;;;;;;;;;;19.30;74.90;;;;;;4495065;31;19966;-67
2022/10/22 11:58:22;;;;;;;;;;;19.30;75.00;;;;;;4495062;31;20032;-67
2022/10/22 12:00:48;;;;;;;;;;;19.30;75.00;;;;;;4494672;31;20045;-67
2022/10/22 12:03:22;;;;;;;;;;;19.30;75.00;;;;;;4480680;31;20426;-68
2022/10/22 12:06:02;;;;;;;;;;;19.30;75.00;;;;;;4494964;31;19984;-68
2022/10/22 12:08:28;;;;;;;;;;;19.30;75.10;;;;;;4494383;31;19985;-67
2022/10/22 12:11:14;;;;;;;;;;;19.30;74.90;;;;;;4494331;31;19988;-67
2022/10/22 12:13:48;;;;;;;;;;;19.30;75.10;;;;;;4494901;31;19996;-67
2022/10/22 12:16:14;;;;;;;;;;;19.30;75.20;;;;;;4494345;31;19985;-67
2022/10/22 12:18:41;;;;;;;;;;;19.30;75.10;;;;;;4494234;31;19981;-70
2022/10/22 12:21:14;;;;;;;;;;;19.30;75.00;;;;;;4494459;31;19980;-68
2022/10/22 12:23:40;;;;;;;;;;;19.30;75.20;;;;;;4494405;31;20009;-68
2022/10/22 12:26:20;;;;;;;;;;;19.30;75.10;;;;;;4494168;31;20073;-70
2022/10/22 12:28:46;;;;;;;;;;;19.30;75.00;;;;;;4494673;31;19986;-70
2022/10/22 12:31:15;;;;;;;;;;;19.30;75.10;;;;;;4494327;31;20393;-70
2022/10/22 12:33:41;;;;;;;;;;;19.30;75.00;;;;;;4494050;31;19985;-70
2022/10/22 12:36:13;;;;;;;;;;;19.30;74.90;;;;;;4494313;31;19976;-70
2022/10/22 12:38:45;;;;;;;;;;;19.30;74.90;;;;;;4480086;31;20040;-70
2022/10/22 12:41:12;;;;;;;;;;;19.30;75.00;;;;;;4479972;31;19981;-71
2022/10/22 12:43:38;;;;;;;;;;;19.30;74.90;;;;;;4494151;31;19969;-70
2022/10/22 12:46:08;;;;;;;;;;;19.30;75.00;;;;;;4494070;31;19973;-69
2022/10/22 12:48:36;;;;;;;;;;;19.30;75.00;;;;;;4494072;31;20017;-70
2022/10/22 12:51:03;;;;;;;;;;;19.30;75.00;;;;;;4479602;31;20054;-70
2022/10/22 12:53:30;;;;;;;;;;;19.30;75.00;;;;;;4493982;31;20009;-67
2022/10/22 12:55:59;;;;;;;;;;;19.30;75.00;;;;;;4493915;31;19988;-67
2022/10/22 12:58:26;;;;;;;;;;;19.30;75.10;;;;;;4493866;31;20397;-66
2022/10/22 13:00:57;;;;;;;;;;;19.30;74.90;;;;;;4493748;31;19981;-67
2022/10/22 13:03:26;;;;;;;;;;;19.30;75.00;;;;;;4494148;31;19985;-67
2022/10/22 13:05:51;;;;;;;;;;;19.30;75.00;;;;;;4493875;31;20059;-67
2022/10/22 13:08:20;;;;;;;;;;;19.30;75.00;;;;;;4493500;31;20079;-67
2022/10/22 13:10:52;;;;;;;;;;;19.30;75.00;;;;;;4493663;31;19993;-67
2022/10/22 13:13:32;;;;;;;;;;;19.30;75.10;;;;;;4493655;31;20383;-67
2022/10/22 13:16:11;;;;;;;;;;;19.30;74.90;;;;;;4479315;31;19978;-67
2022/10/22 13:18:37;;;;;;;;;;;19.30;74.90;;;;;;4493449;31;19981;-68
2022/10/22 13:21:05;;;;;;;;;;;19.30;74.90;;;;;;4492755;31;19985;-67
2022/10/22 13:23:32;;;;;;;;;;;19.30;75.00;;;;;;4479334;31;19989;-67
2022/10/22 13:26:00;;;;;;;;;;;19.30;75.00;;;;;;4493176;31;19974;-67
2022/10/22 13:28:26;;;;;;;;;;;19.30;75.00;;;;;;4493715;31;19966;-67
2022/10/22 13:30:59;;;;;;;;;;;19.30;75.00;;;;;;4493434;31;20508;-67
2022/10/22 13:33:39;;;;;;;;;;;19.30;74.90;;;;;;4493322;31;20103;-67
2022/10/22 13:36:05;;;;;;;;;;;19.30;75.00;;;;;;4493303;31;20390;-68
2022/10/22 13:38:30;;;;;;;;;;;19.30;75.00;;;;;;4493229;31;20401;-67
2022/10/22 13:40:56;;;;;;;;;;;19.30;74.90;;;;;;4478690;31;20059;-67
2022/10/22 13:43:22;;;;;;;;;;;19.30;75.10;;;;;;4493460;31;19970;-70
2022/10/22 13:45:50;;;;;;;;;;;19.30;75.00;;;;;;4493241;31;20010;-70
2022/10/22 13:48:18;;;;;;;;;;;19.30;75.00;;;;;;4493201;31;19969;-70
2022/10/22 13:50:44;;;;;;;;;;;19.30;74.90;;;;;;4493321;31;19977;-70
2022/10/22 13:53:20;;;;;;;;;;;19.30;74.90;;;;;;4493292;31;20287;-67
2022/10/22 13:55:46;;;;;;;;;;;19.30;74.90;;;;;;4493428;31;20411;-67
2022/10/22 13:58:13;;;;;;;;;;;19.30;74.80;;;;;;4493077;31;19976;-67
2022/10/22 14:00:40;;;;;;;;;;;19.30;74.80;;;;;;4492937;31;20391;-67
2022/10/22 14:03:08;;;;;;;;;;;19.30;74.80;;;;;;4493049;31;20015;-67
2022/10/22 14:05:34;;;;;;;;;;;19.30;74.80;;;;;;4492908;31;20026;-70
2022/10/22 14:08:00;;;;;;;;;;;19.30;74.90;;;;;;4492649;31;20020;-70
2022/10/22 14:10:26;;;;;;;;;;;19.30;74.90;;;;;;4492766;31;19958;-70
2022/10/22 14:12:52;;;;;;;;;;;19.30;75.00;;;;;;4492802;31;19966;-68
2022/10/22 14:15:18;;;;;;;;;;;19.30;75.00;;;;;;4492828;31;20513;-67
2022/10/22 14:17:48;;;;;;;;;;;19.30;75.00;;;;;;4493014;31;19977;-67
2022/10/22 14:20:19;;;;;;;;;;;19.30;75.00;;;;;;4478386;31;19969;-67
2022/10/22 14:22:46;;;;;;;;;;;19.30;75.00;;;;;;4493067;31;20409;-67